createdAt,value
2019-05-19T00:01:42.264Z,72.67
2019-05-19T00:04:11.989Z,69.63
2019-05-19T00:06:41.668Z,70.97
2019-05-19T00:09:11.449Z,71.93
2019-05-19T00:11:41.163Z,81.33
2019-05-19T00:14:10.915Z,77.77
2019-05-19T00:16:40.617Z,68.07
2019-05-19T00:19:10.367Z,65.90
2019-05-19T00:21:40.079Z,71.30
2019-05-19T00:24:09.856Z,66.27
2019-05-19T00:26:39.629Z,72.73
2019-05-19T00:29:10.575Z,69.77
2019-05-19T00:31:40.346Z,78.23
2019-05-19T00:34:10.143Z,70.77
2019-05-19T00:36:40.447Z,68.10
2019-05-19T00:39:10.234Z,73.73
2019-05-19T00:41:40.076Z,64.50
2019-05-19T00:44:09.874Z,68.33
2019-05-19T00:46:39.633Z,70.43
2019-05-19T00:49:09.483Z,68.00
2019-05-19T00:51:39.539Z,77.40
2019-05-19T00:54:09.368Z,66.43
2019-05-19T00:56:39.319Z,75.20
2019-05-19T00:59:10.066Z,74.60
2019-05-19T01:01:39.892Z,72.17
2019-05-19T01:04:09.656Z,70.80
2019-05-19T01:06:39.419Z,69.73
2019-05-19T01:09:10.371Z,72.80
2019-05-19T01:11:40.141Z,74.90
2019-05-19T01:14:09.875Z,71.70
2019-05-19T01:16:39.635Z,75.93
2019-05-19T01:19:09.497Z,68.83
2019-05-19T01:21:39.849Z,76.57
2019-05-19T01:24:10.604Z,71.57
2019-05-19T01:26:40.388Z,71.77
2019-05-19T01:29:10.146Z,67.17
2019-05-19T01:31:41.109Z,71.47
2019-05-19T01:34:10.807Z,68.87
2019-05-19T01:36:40.679Z,66.87
2019-05-19T01:39:10.468Z,75.30
2019-05-19T01:41:40.211Z,79.53
2019-05-19T01:44:09.929Z,66.87
2019-05-19T01:46:39.628Z,66.40
2019-05-19T01:49:09.377Z,59.63
2019-05-19T01:51:39.075Z,69.77
2019-05-19T01:54:08.907Z,60.40
2019-05-19T01:56:38.631Z,68.23
2019-05-19T01:59:08.397Z,65.77
2019-05-19T02:01:38.173Z,61.03
2019-05-19T02:04:07.967Z,73.10
2019-05-19T02:06:37.759Z,65.60
2019-05-19T02:09:07.930Z,68.00
2019-05-19T02:11:37.692Z,65.43
2019-05-19T02:14:07.541Z,59.77
2019-05-19T02:16:37.230Z,61.17
2019-05-19T02:19:07.087Z,61.10
2019-05-19T02:21:36.906Z,57.70
2019-05-19T02:24:06.747Z,61.30
2019-05-19T02:26:36.446Z,58.37
2019-05-19T02:29:06.246Z,58.80
2019-05-19T02:31:36.086Z,68.57
2019-05-19T02:34:05.924Z,64.53
2019-05-19T02:36:35.703Z,56.23
2019-05-19T02:39:06.348Z,58.23
2019-05-19T02:41:37.192Z,72.73
2019-05-19T02:44:08.235Z,58.53
2019-05-19T02:46:40.195Z,68.40
2019-05-19T02:49:11.844Z,56.33
2019-05-19T02:51:44.697Z,66.10
2019-05-19T02:54:15.128Z,56.23
2019-05-19T02:56:47.020Z,59.27
2019-05-19T02:59:18.178Z,57.40
2019-05-19T03:02:10.001Z,43.60
2019-05-19T03:04:39.757Z,57.50
2019-05-19T03:07:09.606Z,59.57
2019-05-19T03:09:39.310Z,57.47
2019-05-19T03:12:09.095Z,54.93
2019-05-19T03:14:38.867Z,57.47
2019-05-19T03:17:08.648Z,60.70
2019-05-19T03:19:39.350Z,57.67
2019-05-19T03:22:09.242Z,62.23
2019-05-19T03:24:38.959Z,64.40
2019-05-19T03:27:08.721Z,60.13
2019-05-19T03:29:42.926Z,62.33
2019-05-19T03:32:23.198Z,64.50
2019-05-19T03:34:53.088Z,64.07
2019-05-19T03:37:22.839Z,52.70
2019-05-19T03:39:52.550Z,54.23
2019-05-19T03:42:22.256Z,66.53
2019-05-19T03:44:51.968Z,54.50
2019-05-19T03:47:21.675Z,57.80
2019-05-19T03:49:51.379Z,49.80
2019-05-19T03:52:21.181Z,44.77
2019-05-19T03:54:51.097Z,51.37
2019-05-19T03:57:20.788Z,60.57
2019-05-19T03:59:50.783Z,51.13
2019-05-19T04:02:20.493Z,51.73
2019-05-19T04:04:50.181Z,57.20
2019-05-19T04:07:19.879Z,53.83
2019-05-19T04:09:49.734Z,51.20
2019-05-19T04:12:19.451Z,59.50
2019-05-19T04:14:49.195Z,47.63
2019-05-19T04:17:18.892Z,64.40
2019-05-19T04:19:48.602Z,52.07
2019-05-19T04:22:18.311Z,45.53
2019-05-19T04:24:48.040Z,61.57
2019-05-19T04:27:17.805Z,45.63
2019-05-19T04:29:48.496Z,56.83
2019-05-19T04:32:18.252Z,53.10
2019-05-19T04:34:48.001Z,52.50
2019-05-19T04:37:17.725Z,51.27
2019-05-19T04:39:47.668Z,47.60
2019-05-19T04:42:17.376Z,51.20
2019-05-19T04:44:47.269Z,57.97
2019-05-19T04:47:16.951Z,52.87
2019-05-19T04:49:46.827Z,50.73
2019-05-19T04:52:16.572Z,53.83
2019-05-19T04:54:46.285Z,56.67
2019-05-19T04:57:15.987Z,56.37
2019-05-19T04:59:45.685Z,52.23
2019-05-19T05:02:15.461Z,59.93
2019-05-19T05:04:45.332Z,50.03
2019-05-19T05:07:15.023Z,48.37
2019-05-19T05:09:44.730Z,48.00
2019-05-19T05:12:14.504Z,52.33
2019-05-19T05:14:44.195Z,39.30
2019-05-19T05:17:13.970Z,45.40
2019-05-19T05:19:43.671Z,52.27
2019-05-19T05:22:21.771Z,45.00
2019-05-19T05:24:44.880Z,63.63
2019-05-19T05:27:14.848Z,51.07
2019-05-19T05:29:44.622Z,61.90
2019-05-19T05:32:14.386Z,58.93
2019-05-19T05:34:44.100Z,38.47
2019-05-19T05:37:14.001Z,55.47
2019-05-19T05:39:43.782Z,54.37
2019-05-19T05:42:13.499Z,56.83
2019-05-19T05:44:43.200Z,60.77
2019-05-19T05:47:12.967Z,59.73
2019-05-19T05:49:42.687Z,60.43
2019-05-19T05:52:12.368Z,53.50
2019-05-19T05:54:42.068Z,58.87
2019-05-19T05:57:11.859Z,55.50
2019-05-19T05:59:41.551Z,56.43
2019-05-19T06:02:11.336Z,44.47
2019-05-19T06:04:41.102Z,52.50
2019-05-19T06:07:10.823Z,60.73
2019-05-19T06:09:40.602Z,53.63
2019-05-19T06:12:10.471Z,56.60
2019-05-19T06:14:40.287Z,57.77
2019-05-19T06:17:09.999Z,50.87
2019-05-19T06:19:39.711Z,46.20
2019-05-19T06:22:09.499Z,49.20
2019-05-19T06:24:39.270Z,48.70
2019-05-19T06:27:09.001Z,53.17
2019-05-19T06:29:39.669Z,52.90
2019-05-19T06:32:22.847Z,44.47
2019-05-19T06:34:52.540Z,50.17
2019-05-19T06:37:22.249Z,43.50
2019-05-19T06:39:51.961Z,49.80
2019-05-19T06:42:21.683Z,51.93
2019-05-19T06:44:51.392Z,40.53
2019-05-19T06:47:21.086Z,44.30
2019-05-19T06:49:50.804Z,42.33
2019-05-19T06:52:20.499Z,34.73
2019-05-19T06:54:50.289Z,38.27
2019-05-19T06:57:20.083Z,42.13
2019-05-19T06:59:49.771Z,46.80
2019-05-19T07:02:19.557Z,41.60
2019-05-19T07:04:49.263Z,36.53
2019-05-19T07:07:18.971Z,46.93
2019-05-19T07:09:57.910Z,42.93
2019-05-19T07:12:20.132Z,41.83
2019-05-19T07:14:49.840Z,36.13
2019-05-19T07:17:19.617Z,47.17
2019-05-19T07:19:49.310Z,41.47
2019-05-19T07:22:19.126Z,43.43
2019-05-19T07:24:48.955Z,42.03
2019-05-19T07:27:19.619Z,37.17
2019-05-19T07:29:49.327Z,38.97
2019-05-19T07:32:19.117Z,37.67
2019-05-19T07:34:48.849Z,37.40
2019-05-19T07:37:18.723Z,43.97
2019-05-19T07:39:48.412Z,37.17
2019-05-19T07:42:18.183Z,43.07
2019-05-19T07:44:47.951Z,39.90
2019-05-19T07:47:17.738Z,41.77
2019-05-19T07:49:47.455Z,42.50
2019-05-19T07:52:17.295Z,40.73
2019-05-19T07:54:47.186Z,35.90
2019-05-19T07:57:16.874Z,34.27
2019-05-19T07:59:46.658Z,34.57
2019-05-19T08:02:16.434Z,38.07
2019-05-19T08:04:46.227Z,34.37
2019-05-19T08:07:16.056Z,33.13
2019-05-19T08:09:45.839Z,34.07
2019-05-19T08:12:15.654Z,40.27
2019-05-19T08:14:45.367Z,35.20
2019-05-19T08:17:15.140Z,37.63
2019-05-19T08:19:44.848Z,38.73
2019-05-19T08:22:14.722Z,35.63
2019-05-19T08:24:44.491Z,35.27
2019-05-19T08:27:14.267Z,33.03
2019-05-19T08:29:43.961Z,36.27
2019-05-19T08:32:13.662Z,38.70
2019-05-19T08:34:43.841Z,34.60
2019-05-19T08:37:13.524Z,35.30
2019-05-19T08:39:43.284Z,32.97
2019-05-19T08:42:13.008Z,42.00
2019-05-19T08:44:42.775Z,39.77
2019-05-19T08:47:12.571Z,33.73
2019-05-19T08:49:42.259Z,32.93
2019-05-19T08:52:12.070Z,37.20
2019-05-19T08:54:41.851Z,38.50
2019-05-19T08:57:11.630Z,33.67
2019-05-19T08:59:41.348Z,33.17
2019-05-19T09:02:11.146Z,32.47
2019-05-19T09:04:40.855Z,32.20
2019-05-19T09:07:10.555Z,34.23
2019-05-19T09:09:40.339Z,40.23
2019-05-19T09:12:12.918Z,29.73
2019-05-19T09:14:43.603Z,34.23
2019-05-19T09:17:13.391Z,36.17
2019-05-19T09:19:43.240Z,33.80
2019-05-19T09:22:13.337Z,36.50
2019-05-19T09:24:43.139Z,31.93
2019-05-19T09:27:12.925Z,29.00
2019-05-19T09:29:42.642Z,39.77
2019-05-19T09:32:12.406Z,30.63
2019-05-19T09:34:42.265Z,30.20
2019-05-19T09:37:11.980Z,33.77
2019-05-19T09:39:41.905Z,31.00
2019-05-19T09:42:11.643Z,30.60
2019-05-19T09:44:41.517Z,27.53
2019-05-19T09:47:11.276Z,30.83
2019-05-19T09:49:40.971Z,28.10
2019-05-19T09:52:10.896Z,32.13
2019-05-19T09:54:45.280Z,27.50
2019-05-19T09:57:12.084Z,29.83
2019-05-19T09:59:41.852Z,29.43
2019-05-19T10:02:11.744Z,29.63
2019-05-19T10:04:41.470Z,31.90
2019-05-19T10:07:11.462Z,28.90
2019-05-19T10:10:01.404Z,30.73
2019-05-19T10:12:31.693Z,25.83
2019-05-19T10:15:02.503Z,30.63
2019-05-19T10:17:32.580Z,28.90
2019-05-19T10:20:02.559Z,29.93
2019-05-19T10:22:32.562Z,30.03
2019-05-19T10:25:21.026Z,31.80
2019-05-19T10:27:36.615Z,31.37
2019-05-19T10:30:08.546Z,27.90
2019-05-19T10:32:38.398Z,27.73
2019-05-19T10:35:08.465Z,30.00
2019-05-19T10:37:38.319Z,29.20
2019-05-19T10:40:08.247Z,32.07
2019-05-19T10:42:37.967Z,32.93
2019-05-19T10:45:08.272Z,29.13
2019-05-19T10:47:38.046Z,32.50
2019-05-19T10:50:08.116Z,33.03
2019-05-19T10:52:37.830Z,32.10
2019-05-19T10:55:07.972Z,28.03
2019-05-19T10:57:37.816Z,29.67
2019-05-19T11:00:08.172Z,30.47
2019-05-19T11:02:37.949Z,29.83
2019-05-19T11:05:11.026Z,29.97
2019-05-19T11:07:39.354Z,36.57
2019-05-19T11:10:09.402Z,29.73
2019-05-19T11:12:39.101Z,31.53
2019-05-19T11:15:09.249Z,35.00
2019-05-19T11:17:39.058Z,32.50
2019-05-19T11:20:09.102Z,31.50
2019-05-19T11:22:38.867Z,27.90
2019-05-19T11:25:08.650Z,26.00
2019-05-19T11:27:38.496Z,30.00
2019-05-19T11:30:08.291Z,29.90
2019-05-19T11:32:38.139Z,31.67
2019-05-19T11:35:08.111Z,29.37
2019-05-19T11:37:39.147Z,29.12
2019-05-19T11:40:09.002Z,32.63
2019-05-19T11:42:38.695Z,30.43
2019-05-19T11:45:08.734Z,31.43
2019-05-19T11:47:38.427Z,34.47
2019-05-19T11:50:08.307Z,32.48
2019-05-19T11:52:38.011Z,31.53
2019-05-19T11:55:07.820Z,28.03
2019-05-19T11:57:37.596Z,28.87
2019-05-19T12:00:08.678Z,31.17
2019-05-19T12:02:38.434Z,31.07
2019-05-19T12:05:09.276Z,31.73
2019-05-19T12:07:38.980Z,29.50
2019-05-19T12:10:09.020Z,31.70
2019-05-19T12:12:38.890Z,27.73
2019-05-19T12:15:09.451Z,27.00
2019-05-19T12:17:39.135Z,30.23
2019-05-19T12:20:08.994Z,31.07
2019-05-19T12:22:38.743Z,28.20
2019-05-19T12:25:20.271Z,35.73
2019-05-19T12:27:49.958Z,28.07
2019-05-19T12:30:21.393Z,36.37
2019-05-19T12:32:51.155Z,29.57
2019-05-19T12:35:20.948Z,26.80
2019-05-19T12:37:50.713Z,33.03
2019-05-19T12:40:22.769Z,29.07
2019-05-19T12:42:52.292Z,33.90
2019-05-19T12:45:22.326Z,31.47
2019-05-19T12:47:52.554Z,26.53
2019-05-19T12:50:22.482Z,34.30
2019-05-19T12:52:52.311Z,31.27
2019-05-19T12:55:22.648Z,31.03
2019-05-19T12:57:52.472Z,34.83
2019-05-19T13:00:22.337Z,34.37
2019-05-19T13:02:52.177Z,37.87
2019-05-19T13:05:22.046Z,31.47
2019-05-19T13:07:51.848Z,36.10
2019-05-19T13:10:21.631Z,32.93
2019-05-19T13:12:51.510Z,31.47
2019-05-19T13:15:21.518Z,38.67
2019-05-19T13:17:51.204Z,37.23
2019-05-19T13:20:21.564Z,34.43
2019-05-19T13:22:51.366Z,35.17
2019-05-19T13:25:21.083Z,37.63
2019-05-19T13:27:51.081Z,32.50
2019-05-19T13:30:21.094Z,32.73
2019-05-19T13:32:50.837Z,34.47
2019-05-19T13:35:32.506Z,43.77
2019-05-19T13:38:02.241Z,34.90
2019-05-19T13:40:31.943Z,35.23
2019-05-19T13:43:02.867Z,33.60
2019-05-19T13:45:32.655Z,33.30
2019-05-19T13:48:02.350Z,39.70
2019-05-19T13:50:32.071Z,35.27
2019-05-19T13:53:01.834Z,40.57
2019-05-19T13:55:31.595Z,39.63
2019-05-19T13:58:03.525Z,30.93
2019-05-19T14:00:32.665Z,38.30
2019-05-19T14:03:02.366Z,33.03
2019-05-19T14:05:32.294Z,36.90
2019-05-19T14:08:02.014Z,29.73
2019-05-19T14:10:31.855Z,35.07
2019-05-19T14:13:02.540Z,29.77
2019-05-19T14:15:32.218Z,34.73
2019-05-19T14:18:02.023Z,30.33
2019-05-19T14:20:31.704Z,33.77
2019-05-19T14:23:01.483Z,35.30
2019-05-19T14:25:31.223Z,30.97
2019-05-19T14:28:01.156Z,32.20
2019-05-19T14:30:30.959Z,30.00
2019-05-19T14:33:00.671Z,29.60
2019-05-19T14:35:30.442Z,30.83
2019-05-19T14:38:00.136Z,38.60
2019-05-19T14:40:29.896Z,29.63
2019-05-19T14:43:01.796Z,30.17
2019-05-19T14:45:31.798Z,29.03
2019-05-19T14:48:01.649Z,30.67
2019-05-19T14:50:34.936Z,29.43
2019-05-19T14:53:04.751Z,34.33
2019-05-19T14:55:34.535Z,33.63
2019-05-19T14:58:04.348Z,31.17
2019-05-19T15:00:34.082Z,31.50
2019-05-19T15:03:03.838Z,30.97
2019-05-19T15:05:33.690Z,33.53
2019-05-19T15:08:03.478Z,32.47
2019-05-19T15:10:33.242Z,29.93
2019-05-19T15:13:03.025Z,37.13
2019-05-19T15:15:32.855Z,32.83
2019-05-19T15:18:02.709Z,35.47
2019-05-19T15:20:32.504Z,42.10
2019-05-19T15:23:02.402Z,31.90
2019-05-19T15:25:32.089Z,31.67
2019-05-19T15:28:05.201Z,32.53
2019-05-19T15:30:33.250Z,31.93
2019-05-19T15:33:03.025Z,36.37
2019-05-19T15:35:32.859Z,35.57
2019-05-19T15:38:02.642Z,34.50
2019-05-19T15:40:32.492Z,31.83
2019-05-19T15:43:02.398Z,29.00
2019-05-19T15:45:32.323Z,37.73
2019-05-19T15:48:02.128Z,35.23
2019-05-19T15:50:31.896Z,37.87
2019-05-19T15:53:01.598Z,32.10
2019-05-19T15:55:31.383Z,32.67
2019-05-19T15:58:15.525Z,32.70
2019-05-19T16:00:32.695Z,40.03
2019-05-19T16:03:02.426Z,31.13
2019-05-19T16:05:33.205Z,35.13
2019-05-19T16:08:02.907Z,38.10
2019-05-19T16:10:32.707Z,45.90
2019-05-19T16:13:02.545Z,37.07
2019-05-19T16:15:32.563Z,31.17
2019-05-19T16:18:02.369Z,40.33
2019-05-19T16:20:34.446Z,36.63
2019-05-19T16:23:04.239Z,41.47
2019-05-19T16:25:33.937Z,59.23
2019-05-19T16:28:03.770Z,35.37
2019-05-19T16:30:33.479Z,44.23
2019-05-19T16:33:03.262Z,32.80
2019-05-19T16:35:32.989Z,35.70
2019-05-19T16:38:02.715Z,33.13
2019-05-19T16:40:32.508Z,29.77
2019-05-19T16:43:02.599Z,35.10
2019-05-19T16:45:33.519Z,32.10
2019-05-19T16:48:03.208Z,34.23
2019-05-19T16:50:32.904Z,34.20
2019-05-19T16:53:02.681Z,31.43
2019-05-19T16:55:34.186Z,41.07
2019-05-19T16:58:19.534Z,31.83
2019-05-19T17:00:35.749Z,41.70
2019-05-19T17:03:05.439Z,38.77
2019-05-19T17:05:35.652Z,31.13
2019-05-19T17:08:05.591Z,32.60
2019-05-19T17:10:35.376Z,24.67
2019-05-19T17:13:05.078Z,28.47
2019-05-19T17:15:34.922Z,35.73
2019-05-19T17:18:08.006Z,24.33
2019-05-19T17:20:36.382Z,27.97
2019-05-19T17:23:07.267Z,32.57
2019-05-19T17:25:36.978Z,28.53
2019-05-19T17:28:06.672Z,22.57
2019-05-19T17:30:36.455Z,23.70
2019-05-19T17:33:06.307Z,21.30
2019-05-19T17:35:36.012Z,23.17
2019-05-19T17:38:05.743Z,24.60
2019-05-19T17:40:35.435Z,19.73
2019-05-19T17:43:05.417Z,21.03
2019-05-19T17:45:35.170Z,22.63
2019-05-19T17:48:09.911Z,18.53
2019-05-19T17:50:36.611Z,19.40
2019-05-19T17:53:06.513Z,26.20
2019-05-19T17:55:36.356Z,26.73
2019-05-19T17:58:06.826Z,28.97
2019-05-19T18:00:41.038Z,26.07
2019-05-19T18:03:11.427Z,26.93
2019-05-19T18:05:41.165Z,23.30
2019-05-19T18:08:11.394Z,26.57
2019-05-19T18:10:41.134Z,22.87
2019-05-19T18:13:11.100Z,23.87
2019-05-19T18:15:40.939Z,20.33
2019-05-19T18:18:10.844Z,27.23
2019-05-19T18:20:40.547Z,24.90
2019-05-19T18:23:10.399Z,21.80
2019-05-19T18:25:40.092Z,22.57
2019-05-19T18:28:09.895Z,29.03
2019-05-19T18:30:39.731Z,24.10
2019-05-19T18:33:09.579Z,21.97
2019-05-19T18:35:39.467Z,20.83
2019-05-19T18:38:09.421Z,21.07
2019-05-19T18:40:39.203Z,16.87
2019-05-19T18:43:09.015Z,17.43
2019-05-19T18:45:38.797Z,19.90
2019-05-19T18:48:09.799Z,22.17
2019-05-19T18:50:39.505Z,18.87
2019-05-19T18:53:09.336Z,21.50
2019-05-19T18:55:39.051Z,18.57
2019-05-19T18:58:08.834Z,16.67
2019-05-19T19:00:39.058Z,17.00
2019-05-19T19:03:09.087Z,20.50
2019-05-19T19:05:38.826Z,14.70
2019-05-19T19:08:08.585Z,18.50
2019-05-19T19:10:38.286Z,17.90
2019-05-19T19:13:08.148Z,20.07
2019-05-19T19:15:37.899Z,18.97
2019-05-19T19:18:07.645Z,24.83
2019-05-19T19:20:37.408Z,23.40
2019-05-19T19:23:07.242Z,13.10
2019-05-19T19:25:37.020Z,14.77
2019-05-19T19:28:06.794Z,17.67
2019-05-19T19:30:36.752Z,16.47
2019-05-19T19:33:06.461Z,17.27
2019-05-19T19:35:39.086Z,17.60
2019-05-19T19:38:07.819Z,14.43
2019-05-19T19:40:37.620Z,18.43
2019-05-19T19:43:08.379Z,16.93
2019-05-19T19:45:38.124Z,17.07
2019-05-19T19:48:08.091Z,18.60
2019-05-19T19:50:37.898Z,17.33
2019-05-19T19:53:07.754Z,19.23
2019-05-19T19:55:37.601Z,20.23
2019-05-19T19:58:07.391Z,21.23
2019-05-19T20:00:42.616Z,14.17
2019-05-19T20:03:12.577Z,18.67
2019-05-19T20:05:44.018Z,19.80
2019-05-19T20:08:13.891Z,22.40
2019-05-19T20:10:43.800Z,19.23
2019-05-19T20:13:13.550Z,18.87
2019-05-19T20:15:43.339Z,23.20
2019-05-19T20:18:13.148Z,17.53
2019-05-19T20:20:42.878Z,22.40
2019-05-19T20:23:12.708Z,19.03
2019-05-19T20:25:42.535Z,17.30
2019-05-19T20:28:16.039Z,17.67
2019-05-19T20:30:45.822Z,23.27
2019-05-19T20:33:15.599Z,14.70
2019-05-19T20:35:45.387Z,18.67
2019-05-19T20:38:15.139Z,19.30
2019-05-19T20:40:44.921Z,18.53
2019-05-19T20:43:14.657Z,21.17
2019-05-19T20:45:44.472Z,17.83
2019-05-19T20:48:14.241Z,17.00
2019-05-19T20:50:44.026Z,20.97
2019-05-19T20:53:13.710Z,16.53
2019-05-19T20:55:43.431Z,26.43
2019-05-19T20:58:13.190Z,16.70
2019-05-19T21:00:50.334Z,17.83
2019-05-19T21:03:14.412Z,19.20
2019-05-19T21:05:44.156Z,24.40
2019-05-19T21:08:13.925Z,23.80
2019-05-19T21:10:43.640Z,20.53
2019-05-19T21:13:13.398Z,19.13
2019-05-19T21:15:43.277Z,13.80
2019-05-19T21:18:13.056Z,19.33
2019-05-19T21:20:42.802Z,17.37
2019-05-19T21:23:12.697Z,21.53
2019-05-19T21:25:42.391Z,19.47
2019-05-19T21:28:12.257Z,17.77
2019-05-19T21:30:41.955Z,19.57
2019-05-19T21:33:11.787Z,17.80
2019-05-19T21:35:41.595Z,19.77
2019-05-19T21:38:11.546Z,17.63
2019-05-19T21:40:41.271Z,20.20
2019-05-19T21:43:11.151Z,21.57
2019-05-19T21:45:40.867Z,20.13
2019-05-19T21:48:10.558Z,23.73
2019-05-19T21:50:40.293Z,20.93
2019-05-19T21:53:09.991Z,25.27
2019-05-19T21:55:40.917Z,21.57
2019-05-19T21:58:10.694Z,22.67
2019-05-19T22:00:40.510Z,26.27
2019-05-19T22:03:10.222Z,24.57
2019-05-19T22:05:52.568Z,23.03
2019-05-19T22:08:14.701Z,26.37
2019-05-19T22:10:45.378Z,21.23
2019-05-19T22:13:15.165Z,24.03
2019-05-19T22:15:44.923Z,24.03
2019-05-19T22:18:14.647Z,20.83
2019-05-19T22:20:44.366Z,27.50
2019-05-19T22:23:14.083Z,30.33
2019-05-19T22:25:43.871Z,29.77
2019-05-19T22:28:13.571Z,26.43
2019-05-19T22:30:43.378Z,27.23
2019-05-19T22:33:13.202Z,29.50
2019-05-19T22:35:42.970Z,26.83
2019-05-19T22:38:12.747Z,27.77
2019-05-19T22:40:43.736Z,29.00
2019-05-19T22:43:13.446Z,23.10
2019-05-19T22:45:43.249Z,23.20
2019-05-19T22:48:12.943Z,26.37
2019-05-19T22:50:42.734Z,30.70
2019-05-19T22:53:12.447Z,33.47
2019-05-19T22:55:42.271Z,25.10
2019-05-19T22:58:11.989Z,25.07
2019-05-19T23:00:41.735Z,25.57
2019-05-19T23:03:11.439Z,23.77
2019-05-19T23:05:41.231Z,25.53
2019-05-19T23:08:11.032Z,26.57
2019-05-19T23:10:40.874Z,24.17
2019-05-19T23:13:10.568Z,23.37
2019-05-19T23:15:40.402Z,29.83
2019-05-19T23:18:10.323Z,29.30
2019-05-19T23:20:40.159Z,30.90
2019-05-19T23:23:10.000Z,25.27
2019-05-19T23:25:39.715Z,33.00
2019-05-19T23:28:09.479Z,27.13
2019-05-19T23:30:39.154Z,37.80
2019-05-19T23:33:09.919Z,27.40
2019-05-19T23:35:39.605Z,40.23
2019-05-19T23:38:09.386Z,33.80
2019-05-19T23:40:39.260Z,33.10
2019-05-19T23:43:08.948Z,36.30
2019-05-19T23:45:39.703Z,34.40
2019-05-19T23:48:09.411Z,37.77
2019-05-19T23:50:39.203Z,32.53
2019-05-19T23:53:09.951Z,29.90
2019-05-19T23:55:39.645Z,30.83
2019-05-19T23:58:09.429Z,29.63
